sensor_id;sensor_type;location;lat;lon;timestamp;P1;durP1;ratioP1;P2;durP2;ratioP2
49812;SDS011;35706;52.100;5.056;2023-03-08T00:00:14;1.83;;;0.20;;
49812;SDS011;35706;52.100;5.056;2023-03-08T00:01:19;0.70;;;0.20;;
49812;SDS011;35706;52.100;5.056;2023-03-08T00:02:21;0.83;;;0.20;;
49812;SDS011;35706;52.100;5.056;2023-03-08T00:03:21;0.90;;;0.20;;
49812;SDS011;35706;52.100;5.056;2023-03-08T00:04:22;1.03;;;0.10;;
49812;SDS011;35706;52.100;5.056;2023-03-08T00:05:22;0.70;;;0.10;;
49812;SDS011;35706;52.100;5.056;2023-03-08T00:06:23;0.37;;;0.10;;
49812;SDS011;35706;52.100;5.056;2023-03-08T00:07:24;1.07;;;0.20;;
49812;SDS011;35706;52.100;5.056;2023-03-08T00:08:24;1.37;;;0.20;;
49812;SDS011;35706;52.100;5.056;2023-03-08T00:09:25;0.50;;;0.20;;
49812;SDS011;35706;52.100;5.056;2023-03-08T00:10:25;0.43;;;0.10;;
49812;SDS011;35706;52.100;5.056;2023-03-08T00:11:26;5.90;;;0.20;;
49812;SDS011;35706;52.100;5.056;2023-03-08T00:12:27;0.67;;;0.10;;
49812;SDS011;35706;52.100;5.056;2023-03-08T00:13:28;1.83;;;0.20;;
49812;SDS011;35706;52.100;5.056;2023-03-08T00:14:28;0.93;;;0.33;;
49812;SDS011;35706;52.100;5.056;2023-03-08T00:15:28;0.83;;;0.17;;
49812;SDS011;35706;52.100;5.056;2023-03-08T00:16:28;1.07;;;0.20;;
49812;SDS011;35706;52.100;5.056;2023-03-08T00:17:29;0.90;;;0.20;;
49812;SDS011;35706;52.100;5.056;2023-03-08T00:18:29;0.83;;;0.10;;
49812;SDS011;35706;52.100;5.056;2023-03-08T00:19:30;1.87;;;0.20;;
49812;SDS011;35706;52.100;5.056;2023-03-08T00:20:31;2.07;;;0.40;;
49812;SDS011;35706;52.100;5.056;2023-03-08T00:21:32;1.77;;;0.20;;
49812;SDS011;35706;52.100;5.056;2023-03-08T00:22:35;0.90;;;0.20;;
49812;SDS011;35706;52.100;5.056;2023-03-08T00:23:36;0.73;;;0.20;;
49812;SDS011;35706;52.100;5.056;2023-03-08T00:24:37;0.70;;;0.20;;
49812;SDS011;35706;52.100;5.056;2023-03-08T00:25:37;0.97;;;0.20;;
49812;SDS011;35706;52.100;5.056;2023-03-08T00:26:37;1.37;;;0.20;;
49812;SDS011;35706;52.100;5.056;2023-03-08T00:27:38;0.50;;;0.10;;
49812;SDS011;35706;52.100;5.056;2023-03-08T00:28:39;2.60;;;0.20;;
49812;SDS011;35706;52.100;5.056;2023-03-08T00:29:39;2.87;;;0.20;;
49812;SDS011;35706;52.100;5.056;2023-03-08T00:30:40;1.50;;;0.20;;
49812;SDS011;35706;52.100;5.056;2023-03-08T00:31:40;1.03;;;0.10;;
49812;SDS011;35706;52.100;5.056;2023-03-08T00:32:40;0.87;;;0.20;;
49812;SDS011;35706;52.100;5.056;2023-03-08T00:33:41;0.50;;;0.13;;
49812;SDS011;35706;52.100;5.056;2023-03-08T00:34:41;2.00;;;0.20;;
49812;SDS011;35706;52.100;5.056;2023-03-08T00:35:52;1.10;;;0.20;;
49812;SDS011;35706;52.100;5.056;2023-03-08T00:36:54;1.97;;;0.10;;
49812;SDS011;35706;52.100;5.056;2023-03-08T00:37:54;0.83;;;0.10;;
49812;SDS011;35706;52.100;5.056;2023-03-08T00:38:55;0.40;;;0.10;;
49812;SDS011;35706;52.100;5.056;2023-03-08T00:39:55;1.53;;;0.20;;
49812;SDS011;35706;52.100;5.056;2023-03-08T00:40:56;1.87;;;0.20;;
49812;SDS011;35706;52.100;5.056;2023-03-08T00:41:56;1.23;;;0.20;;
49812;SDS011;35706;52.100;5.056;2023-03-08T00:42:56;0.87;;;0.20;;
49812;SDS011;35706;52.100;5.056;2023-03-08T00:43:57;2.20;;;0.20;;
49812;SDS011;35706;52.100;5.056;2023-03-08T01:31:40;4.73;;;1.03;;
49812;SDS011;35706;52.100;5.056;2023-03-08T01:32:40;3.00;;;0.90;;
49812;SDS011;35706;52.100;5.056;2023-03-08T01:33:43;1.63;;;0.90;;
49812;SDS011;35706;52.100;5.056;2023-03-08T01:34:44;3.07;;;0.93;;
49812;SDS011;35706;52.100;5.056;2023-03-08T01:35:44;2.23;;;0.90;;
49812;SDS011;35706;52.100;5.056;2023-03-08T01:36:44;3.60;;;1.00;;
49812;SDS011;35706;52.100;5.056;2023-03-08T01:37:45;4.70;;;1.10;;
49812;SDS011;35706;52.100;5.056;2023-03-08T01:38:52;4.73;;;0.80;;
49812;SDS011;35706;52.100;5.056;2023-03-08T01:39:52;4.97;;;0.90;;
49812;SDS011;35706;52.100;5.056;2023-03-08T01:40:56;3.53;;;1.07;;
49812;SDS011;35706;52.100;5.056;2023-03-08T01:41:58;4.53;;;0.90;;
49812;SDS011;35706;52.100;5.056;2023-03-08T01:42:58;2.83;;;1.10;;
49812;SDS011;35706;52.100;5.056;2023-03-08T01:43:58;3.60;;;1.07;;
49812;SDS011;35706;52.100;5.056;2023-03-08T01:45:00;5.10;;;1.27;;
49812;SDS011;35706;52.100;5.056;2023-03-08T01:46:16;3.80;;;1.30;;
49812;SDS011;35706;52.100;5.056;2023-03-08T01:47:18;4.50;;;0.90;;
49812;SDS011;35706;52.100;5.056;2023-03-08T01:48:20;4.10;;;1.17;;
49812;SDS011;35706;52.100;5.056;2023-03-08T01:49:27;2.70;;;0.90;;
49812;SDS011;35706;52.100;5.056;2023-03-08T01:50:31;5.00;;;0.93;;
49812;SDS011;35706;52.100;5.056;2023-03-08T01:52:45;3.20;;;1.00;;
49812;SDS011;35706;52.100;5.056;2023-03-08T01:53:49;2.40;;;1.03;;
49812;SDS011;35706;52.100;5.056;2023-03-08T01:54:50;4.50;;;0.97;;
49812;SDS011;35706;52.100;5.056;2023-03-08T01:55:57;3.10;;;0.90;;
49812;SDS011;35706;52.100;5.056;2023-03-08T01:56:58;2.30;;;0.90;;
49812;SDS011;35706;52.100;5.056;2023-03-08T01:58:02;5.90;;;1.37;;
49812;SDS011;35706;52.100;5.056;2023-03-08T01:59:03;4.17;;;1.33;;
49812;SDS011;35706;52.100;5.056;2023-03-08T02:00:07;3.33;;;1.20;;
49812;SDS011;35706;52.100;5.056;2023-03-08T02:01:10;4.73;;;1.20;;
49812;SDS011;35706;52.100;5.056;2023-03-08T02:02:10;1.97;;;1.00;;
49812;SDS011;35706;52.100;5.056;2023-03-08T02:03:11;4.80;;;1.50;;
49812;SDS011;35706;52.100;5.056;2023-03-08T02:04:11;5.40;;;1.30;;
49812;SDS011;35706;52.100;5.056;2023-03-08T02:05:11;4.90;;;1.47;;
49812;SDS011;35706;52.100;5.056;2023-03-08T02:06:13;2.50;;;1.40;;
49812;SDS011;35706;52.100;5.056;2023-03-08T02:07:15;4.50;;;1.73;;
49812;SDS011;35706;52.100;5.056;2023-03-08T02:08:16;5.10;;;2.13;;
49812;SDS011;35706;52.100;5.056;2023-03-08T02:09:16;5.03;;;2.63;;
49812;SDS011;35706;52.100;5.056;2023-03-08T02:10:17;3.13;;;2.23;;
49812;SDS011;35706;52.100;5.056;2023-03-08T02:11:18;6.20;;;2.03;;
49812;SDS011;35706;52.100;5.056;2023-03-08T02:12:21;3.20;;;2.10;;
49812;SDS011;35706;52.100;5.056;2023-03-08T02:13:22;3.83;;;1.87;;
49812;SDS011;35706;52.100;5.056;2023-03-08T02:14:24;7.67;;;1.77;;
49812;SDS011;35706;52.100;5.056;2023-03-08T02:15:25;5.10;;;1.90;;
49812;SDS011;35706;52.100;5.056;2023-03-08T02:16:25;3.23;;;1.60;;
49812;SDS011;35706;52.100;5.056;2023-03-08T02:17:26;3.90;;;1.10;;
49812;SDS011;35706;52.100;5.056;2023-03-08T02:18:26;3.77;;;1.30;;
49812;SDS011;35706;52.100;5.056;2023-03-08T02:19:34;3.50;;;1.63;;
49812;SDS011;35706;52.100;5.056;2023-03-08T02:20:53;5.53;;;1.97;;
49812;SDS011;35706;52.100;5.056;2023-03-08T02:21:54;4.13;;;1.67;;
49812;SDS011;35706;52.100;5.056;2023-03-08T02:22:54;3.67;;;2.13;;
49812;SDS011;35706;52.100;5.056;2023-03-08T02:23:55;3.53;;;1.73;;
49812;SDS011;35706;52.100;5.056;2023-03-08T02:25:01;3.47;;;1.80;;
49812;SDS011;35706;52.100;5.056;2023-03-08T02:26:02;2.97;;;1.77;;
49812;SDS011;35706;52.100;5.056;2023-03-08T02:27:08;7.43;;;2.07;;
49812;SDS011;35706;52.100;5.056;2023-03-08T02:28:12;4.43;;;2.00;;
49812;SDS011;35706;52.100;5.056;2023-03-08T02:29:12;6.23;;;2.03;;
49812;SDS011;35706;52.100;5.056;2023-03-08T02:30:14;6.60;;;2.17;;
49812;SDS011;35706;52.100;5.056;2023-03-08T02:31:16;5.13;;;2.00;;
49812;SDS011;35706;52.100;5.056;2023-03-08T02:32:16;3.93;;;1.83;;
49812;SDS011;35706;52.100;5.056;2023-03-08T02:33:17;4.07;;;2.30;;
49812;SDS011;35706;52.100;5.056;2023-03-08T02:34:17;5.17;;;1.87;;
49812;SDS011;35706;52.100;5.056;2023-03-08T02:35:18;7.63;;;2.17;;
49812;SDS011;35706;52.100;5.056;2023-03-08T02:36:18;4.93;;;2.63;;
49812;SDS011;35706;52.100;5.056;2023-03-08T02:37:18;2.73;;;2.40;;
49812;SDS011;35706;52.100;5.056;2023-03-08T02:38:19;2.87;;;2.00;;
49812;SDS011;35706;52.100;5.056;2023-03-08T02:39:20;5.20;;;2.30;;
49812;SDS011;35706;52.100;5.056;2023-03-08T02:40:20;3.43;;;2.13;;
49812;SDS011;35706;52.100;5.056;2023-03-08T02:41:21;6.13;;;2.63;;
49812;SDS011;35706;52.100;5.056;2023-03-08T02:42:21;3.87;;;2.93;;
49812;SDS011;35706;52.100;5.056;2023-03-08T02:43:21;4.30;;;2.30;;
49812;SDS011;35706;52.100;5.056;2023-03-08T02:44:22;7.97;;;2.70;;
49812;SDS011;35706;52.100;5.056;2023-03-08T02:45:22;4.33;;;2.73;;
49812;SDS011;35706;52.100;5.056;2023-03-08T02:46:22;8.00;;;3.10;;
49812;SDS011;35706;52.100;5.056;2023-03-08T02:47:23;6.40;;;2.50;;
49812;SDS011;35706;52.100;5.056;2023-03-08T02:48:23;7.77;;;2.63;;
49812;SDS011;35706;52.100;5.056;2023-03-08T02:49:23;7.23;;;2.93;;
49812;SDS011;35706;52.100;5.056;2023-03-08T02:50:24;7.57;;;2.80;;
49812;SDS011;35706;52.100;5.056;2023-03-08T02:51:24;7.70;;;3.13;;
49812;SDS011;35706;52.100;5.056;2023-03-08T02:52:24;4.70;;;2.80;;
49812;SDS011;35706;52.100;5.056;2023-03-08T02:53:25;8.50;;;2.90;;
49812;SDS011;35706;52.100;5.056;2023-03-08T02:54:25;6.10;;;3.17;;
49812;SDS011;35706;52.100;5.056;2023-03-08T02:55:25;9.17;;;3.53;;
49812;SDS011;35706;52.100;5.056;2023-03-08T02:56:26;6.37;;;3.10;;
49812;SDS011;35706;52.100;5.056;2023-03-08T02:57:26;5.23;;;3.27;;
49812;SDS011;35706;52.100;5.056;2023-03-08T02:58:26;12.27;;;2.83;;
49812;SDS011;35706;52.100;5.056;2023-03-08T02:59:27;5.87;;;3.07;;
49812;SDS011;35706;52.100;5.056;2023-03-08T03:00:27;3.90;;;3.07;;
49812;SDS011;35706;52.100;5.056;2023-03-08T03:01:28;4.93;;;3.27;;
49812;SDS011;35706;52.100;5.056;2023-03-08T03:02:28;3.90;;;2.83;;
49812;SDS011;35706;52.100;5.056;2023-03-08T03:03:28;6.47;;;4.07;;
49812;SDS011;35706;52.100;5.056;2023-03-08T03:04:30;4.23;;;3.43;;
49812;SDS011;35706;52.100;5.056;2023-03-08T03:05:32;7.20;;;4.03;;
49812;SDS011;35706;52.100;5.056;2023-03-08T03:06:32;9.97;;;3.50;;
49812;SDS011;35706;52.100;5.056;2023-03-08T03:07:36;5.83;;;3.40;;
49812;SDS011;35706;52.100;5.056;2023-03-08T03:08:37;6.90;;;3.57;;
49812;SDS011;35706;52.100;5.056;2023-03-08T03:09:37;7.90;;;3.70;;
49812;SDS011;35706;52.100;5.056;2023-03-08T03:10:38;8.33;;;3.57;;
49812;SDS011;35706;52.100;5.056;2023-03-08T03:11:39;7.03;;;3.03;;
49812;SDS011;35706;52.100;5.056;2023-03-08T03:12:39;7.07;;;3.83;;
49812;SDS011;35706;52.100;5.056;2023-03-08T03:13:40;9.40;;;3.83;;
49812;SDS011;35706;52.100;5.056;2023-03-08T03:14:40;14.13;;;5.03;;
49812;SDS011;35706;52.100;5.056;2023-03-08T03:15:41;8.97;;;3.77;;
49812;SDS011;35706;52.100;5.056;2023-03-08T03:16:41;6.97;;;3.80;;
49812;SDS011;35706;52.100;5.056;2023-03-08T03:17:41;7.30;;;3.63;;
49812;SDS011;35706;52.100;5.056;2023-03-08T03:18:42;5.80;;;3.50;;
49812;SDS011;35706;52.100;5.056;2023-03-08T03:19:42;4.73;;;3.43;;
49812;SDS011;35706;52.100;5.056;2023-03-08T03:20:42;4.53;;;4.10;;
49812;SDS011;35706;52.100;5.056;2023-03-08T03:21:43;8.07;;;4.67;;
49812;SDS011;35706;52.100;5.056;2023-03-08T03:22:43;8.17;;;4.30;;
49812;SDS011;35706;52.100;5.056;2023-03-08T03:23:45;12.17;;;4.43;;
49812;SDS011;35706;52.100;5.056;2023-03-08T03:24:48;6.60;;;4.67;;
49812;SDS011;35706;52.100;5.056;2023-03-08T03:25:49;10.17;;;4.67;;
49812;SDS011;35706;52.100;5.056;2023-03-08T03:26:50;7.60;;;4.30;;
49812;SDS011;35706;52.100;5.056;2023-03-08T03:27:50;9.53;;;4.60;;
49812;SDS011;35706;52.100;5.056;2023-03-08T03:28:54;6.93;;;4.93;;
49812;SDS011;35706;52.100;5.056;2023-03-08T03:29:56;5.10;;;4.43;;
49812;SDS011;35706;52.100;5.056;2023-03-08T03:30:56;9.23;;;5.17;;
49812;SDS011;35706;52.100;5.056;2023-03-08T03:31:56;7.17;;;4.80;;
49812;SDS011;35706;52.100;5.056;2023-03-08T03:32:57;9.73;;;4.57;;
49812;SDS011;35706;52.100;5.056;2023-03-08T03:33:57;7.23;;;4.67;;
49812;SDS011;35706;52.100;5.056;2023-03-08T03:34:57;9.80;;;4.97;;
49812;SDS011;35706;52.100;5.056;2023-03-08T03:35:58;7.57;;;4.53;;
49812;SDS011;35706;52.100;5.056;2023-03-08T03:36:58;7.70;;;4.47;;
49812;SDS011;35706;52.100;5.056;2023-03-08T03:37:58;10.60;;;4.97;;
49812;SDS011;35706;52.100;5.056;2023-03-08T03:38:58;9.13;;;5.13;;
49812;SDS011;35706;52.100;5.056;2023-03-08T03:39:59;7.47;;;5.10;;
49812;SDS011;35706;52.100;5.056;2023-03-08T03:41:03;9.43;;;6.00;;
49812;SDS011;35706;52.100;5.056;2023-03-08T03:42:08;7.50;;;4.63;;
49812;SDS011;35706;52.100;5.056;2023-03-08T03:43:09;6.53;;;4.60;;
49812;SDS011;35706;52.100;5.056;2023-03-08T03:44:09;8.87;;;5.07;;
49812;SDS011;35706;52.100;5.056;2023-03-08T03:45:10;10.47;;;4.73;;
49812;SDS011;35706;52.100;5.056;2023-03-08T03:46:11;10.10;;;5.07;;
49812;SDS011;35706;52.100;5.056;2023-03-08T03:47:13;7.40;;;5.03;;
49812;SDS011;35706;52.100;5.056;2023-03-08T03:48:14;9.33;;;5.00;;
49812;SDS011;35706;52.100;5.056;2023-03-08T03:49:16;9.83;;;4.20;;
49812;SDS011;35706;52.100;5.056;2023-03-08T03:50:16;7.93;;;4.90;;
49812;SDS011;35706;52.100;5.056;2023-03-08T03:51:18;6.37;;;4.73;;
49812;SDS011;35706;52.100;5.056;2023-03-08T03:52:19;7.30;;;4.87;;
49812;SDS011;35706;52.100;5.056;2023-03-08T03:53:20;7.73;;;4.57;;
49812;SDS011;35706;52.100;5.056;2023-03-08T03:54:20;9.97;;;5.23;;
49812;SDS011;35706;52.100;5.056;2023-03-08T03:55:20;7.73;;;4.40;;
49812;SDS011;35706;52.100;5.056;2023-03-08T03:56:22;8.17;;;5.20;;
49812;SDS011;35706;52.100;5.056;2023-03-08T03:57:24;7.33;;;4.93;;
49812;SDS011;35706;52.100;5.056;2023-03-08T03:58:25;5.67;;;5.07;;
49812;SDS011;35706;52.100;5.056;2023-03-08T03:59:25;8.73;;;4.67;;
49812;SDS011;35706;52.100;5.056;2023-03-08T04:00:26;5.53;;;4.67;;
49812;SDS011;35706;52.100;5.056;2023-03-08T04:01:27;8.53;;;5.10;;
49812;SDS011;35706;52.100;5.056;2023-03-08T04:02:29;14.43;;;5.53;;
49812;SDS011;35706;52.100;5.056;2023-03-08T04:03:29;8.90;;;4.30;;
49812;SDS011;35706;52.100;5.056;2023-03-08T04:04:29;10.70;;;5.43;;
49812;SDS011;35706;52.100;5.056;2023-03-08T04:05:30;9.80;;;5.20;;
49812;SDS011;35706;52.100;5.056;2023-03-08T04:06:31;8.23;;;5.17;;
49812;SDS011;35706;52.100;5.056;2023-03-08T04:07:32;10.70;;;6.23;;
49812;SDS011;35706;52.100;5.056;2023-03-08T04:08:32;9.30;;;5.13;;
49812;SDS011;35706;52.100;5.056;2023-03-08T04:09:33;7.57;;;5.47;;
49812;SDS011;35706;52.100;5.056;2023-03-08T04:10:34;9.60;;;5.13;;
49812;SDS011;35706;52.100;5.056;2023-03-08T04:11:35;7.00;;;5.27;;
49812;SDS011;35706;52.100;5.056;2023-03-08T04:12:37;10.40;;;5.90;;
49812;SDS011;35706;52.100;5.056;2023-03-08T04:13:37;6.07;;;5.47;;
49812;SDS011;35706;52.100;5.056;2023-03-08T04:14:38;10.10;;;5.27;;
49812;SDS011;35706;52.100;5.056;2023-03-08T04:15:39;6.10;;;5.20;;
49812;SDS011;35706;52.100;5.056;2023-03-08T04:16:39;10.37;;;6.10;;
49812;SDS011;35706;52.100;5.056;2023-03-08T04:17:40;9.10;;;5.90;;
49812;SDS011;35706;52.100;5.056;2023-03-08T04:18:40;7.60;;;5.07;;
49812;SDS011;35706;52.100;5.056;2023-03-08T04:19:40;8.80;;;5.33;;
49812;SDS011;35706;52.100;5.056;2023-03-08T04:20:41;15.37;;;5.37;;
49812;SDS011;35706;52.100;5.056;2023-03-08T04:21:43;10.20;;;5.50;;
49812;SDS011;35706;52.100;5.056;2023-03-08T04:22:44;9.03;;;5.57;;
49812;SDS011;35706;52.100;5.056;2023-03-08T04:23:44;9.57;;;5.90;;
49812;SDS011;35706;52.100;5.056;2023-03-08T04:24:44;9.57;;;6.07;;
49812;SDS011;35706;52.100;5.056;2023-03-08T04:25:45;11.37;;;5.87;;
49812;SDS011;35706;52.100;5.056;2023-03-08T04:26:46;11.97;;;7.27;;
49812;SDS011;35706;52.100;5.056;2023-03-08T04:27:46;14.60;;;8.20;;
49812;SDS011;35706;52.100;5.056;2023-03-08T04:28:47;9.43;;;7.60;;
49812;SDS011;35706;52.100;5.056;2023-03-08T04:29:47;12.07;;;8.23;;
49812;SDS011;35706;52.100;5.056;2023-03-08T04:30:47;11.33;;;8.23;;
49812;SDS011;35706;52.100;5.056;2023-03-08T04:31:48;10.90;;;7.77;;
49812;SDS011;35706;52.100;5.056;2023-03-08T04:32:48;12.37;;;6.63;;
49812;SDS011;35706;52.100;5.056;2023-03-08T04:33:48;7.60;;;6.77;;
49812;SDS011;35706;52.100;5.056;2023-03-08T04:34:50;9.53;;;6.43;;
49812;SDS011;35706;52.100;5.056;2023-03-08T04:35:50;6.30;;;5.63;;
49812;SDS011;35706;52.100;5.056;2023-03-08T04:36:50;6.00;;;5.27;;
49812;SDS011;35706;52.100;5.056;2023-03-08T04:37:51;11.57;;;5.67;;
49812;SDS011;35706;52.100;5.056;2023-03-08T04:38:51;7.23;;;5.77;;
49812;SDS011;35706;52.100;5.056;2023-03-08T04:39:51;7.63;;;5.43;;
49812;SDS011;35706;52.100;5.056;2023-03-08T04:40:52;6.93;;;5.53;;
49812;SDS011;35706;52.100;5.056;2023-03-08T04:42:01;8.40;;;5.47;;
49812;SDS011;35706;52.100;5.056;2023-03-08T04:43:01;9.47;;;5.30;;
49812;SDS011;35706;52.100;5.056;2023-03-08T04:44:01;10.83;;;6.93;;
49812;SDS011;35706;52.100;5.056;2023-03-08T04:45:02;11.27;;;8.17;;
49812;SDS011;35706;52.100;5.056;2023-03-08T04:46:03;8.73;;;7.20;;
49812;SDS011;35706;52.100;5.056;2023-03-08T04:47:04;14.27;;;9.20;;
49812;SDS011;35706;52.100;5.056;2023-03-08T04:48:04;15.13;;;9.40;;
49812;SDS011;35706;52.100;5.056;2023-03-08T04:49:05;13.33;;;9.00;;
49812;SDS011;35706;52.100;5.056;2023-03-08T04:50:05;15.50;;;9.67;;
49812;SDS011;35706;52.100;5.056;2023-03-08T04:51:07;11.37;;;8.47;;
49812;SDS011;35706;52.100;5.056;2023-03-08T04:52:08;16.50;;;9.10;;
49812;SDS011;35706;52.100;5.056;2023-03-08T04:53:08;15.97;;;9.90;;
49812;SDS011;35706;52.100;5.056;2023-03-08T04:54:08;17.90;;;10.50;;
49812;SDS011;35706;52.100;5.056;2023-03-08T04:55:09;14.80;;;10.17;;
49812;SDS011;35706;52.100;5.056;2023-03-08T04:56:09;17.40;;;10.53;;
49812;SDS011;35706;52.100;5.056;2023-03-08T04:57:11;16.33;;;10.57;;
49812;SDS011;35706;52.100;5.056;2023-03-08T04:58:11;16.33;;;10.67;;
49812;SDS011;35706;52.100;5.056;2023-03-08T04:59:12;20.03;;;10.70;;
49812;SDS011;35706;52.100;5.056;2023-03-08T05:00:12;17.43;;;10.83;;
49812;SDS011;35706;52.100;5.056;2023-03-08T05:01:16;16.23;;;11.03;;
49812;SDS011;35706;52.100;5.056;2023-03-08T05:02:20;21.83;;;12.30;;
49812;SDS011;35706;52.100;5.056;2023-03-08T05:03:22;20.10;;;11.83;;
49812;SDS011;35706;52.100;5.056;2023-03-08T05:04:22;19.70;;;11.50;;
49812;SDS011;35706;52.100;5.056;2023-03-08T05:05:23;18.63;;;11.90;;
49812;SDS011;35706;52.100;5.056;2023-03-08T05:06:23;25.07;;;13.17;;
49812;SDS011;35706;52.100;5.056;2023-03-08T05:07:26;18.43;;;12.90;;
49812;SDS011;35706;52.100;5.056;2023-03-08T05:08:26;23.47;;;13.97;;
49812;SDS011;35706;52.100;5.056;2023-03-08T05:09:27;25.87;;;15.07;;
49812;SDS011;35706;52.100;5.056;2023-03-08T05:10:27;24.23;;;14.03;;
49812;SDS011;35706;52.100;5.056;2023-03-08T05:11:28;26.33;;;14.37;;
49812;SDS011;35706;52.100;5.056;2023-03-08T05:12:28;27.90;;;15.27;;
49812;SDS011;35706;52.100;5.056;2023-03-08T05:13:30;28.37;;;16.03;;
49812;SDS011;35706;52.100;5.056;2023-03-08T05:14:32;28.63;;;16.23;;
49812;SDS011;35706;52.100;5.056;2023-03-08T05:15:33;27.47;;;15.70;;
49812;SDS011;35706;52.100;5.056;2023-03-08T05:16:33;32.97;;;17.00;;
49812;SDS011;35706;52.100;5.056;2023-03-08T05:17:34;30.30;;;16.87;;
49812;SDS011;35706;52.100;5.056;2023-03-08T05:18:34;37.23;;;18.80;;
49812;SDS011;35706;52.100;5.056;2023-03-08T05:19:34;37.53;;;19.07;;
49812;SDS011;35706;52.100;5.056;2023-03-08T05:20:35;38.47;;;19.83;;
49812;SDS011;35706;52.100;5.056;2023-03-08T05:21:35;42.00;;;19.87;;
49812;SDS011;35706;52.100;5.056;2023-03-08T05:22:35;43.23;;;20.00;;
49812;SDS011;35706;52.100;5.056;2023-03-08T05:23:36;45.00;;;20.97;;
49812;SDS011;35706;52.100;5.056;2023-03-08T05:24:37;45.27;;;20.83;;
49812;SDS011;35706;52.100;5.056;2023-03-08T05:25:40;42.07;;;19.33;;
49812;SDS011;35706;52.100;5.056;2023-03-08T05:26:42;55.20;;;22.30;;
49812;SDS011;35706;52.100;5.056;2023-03-08T05:27:42;56.90;;;25.77;;
49812;SDS011;35706;52.100;5.056;2023-03-08T05:28:43;59.60;;;23.50;;
49812;SDS011;35706;52.100;5.056;2023-03-08T05:29:44;54.03;;;24.40;;
49812;SDS011;35706;52.100;5.056;2023-03-08T05:30:44;49.77;;;23.27;;
49812;SDS011;35706;52.100;5.056;2023-03-08T05:31:44;51.83;;;22.23;;
49812;SDS011;35706;52.100;5.056;2023-03-08T05:32:45;48.83;;;22.77;;
49812;SDS011;35706;52.100;5.056;2023-03-08T05:33:47;51.60;;;22.73;;
49812;SDS011;35706;52.100;5.056;2023-03-08T05:34:50;50.20;;;22.80;;
49812;SDS011;35706;52.100;5.056;2023-03-08T05:35:52;49.63;;;23.00;;
49812;SDS011;35706;52.100;5.056;2023-03-08T05:36:53;53.40;;;22.87;;
49812;SDS011;35706;52.100;5.056;2023-03-08T05:37:53;48.83;;;23.03;;
49812;SDS011;35706;52.100;5.056;2023-03-08T05:38:54;51.70;;;22.53;;
49812;SDS011;35706;52.100;5.056;2023-03-08T05:39:54;54.03;;;23.13;;
49812;SDS011;35706;52.100;5.056;2023-03-08T05:40:58;55.37;;;23.80;;
49812;SDS011;35706;52.100;5.056;2023-03-08T05:42:02;53.53;;;24.20;;
49812;SDS011;35706;52.100;5.056;2023-03-08T05:43:02;56.73;;;23.77;;
49812;SDS011;35706;52.100;5.056;2023-03-08T05:44:02;53.47;;;24.37;;
49812;SDS011;35706;52.100;5.056;2023-03-08T05:45:03;59.77;;;25.63;;
49812;SDS011;35706;52.100;5.056;2023-03-08T05:46:04;54.77;;;24.13;;
49812;SDS011;35706;52.100;5.056;2023-03-08T05:47:06;54.07;;;23.67;;
49812;SDS011;35706;52.100;5.056;2023-03-08T05:48:07;52.40;;;23.57;;
49812;SDS011;35706;52.100;5.056;2023-03-08T05:49:07;55.37;;;23.70;;
49812;SDS011;35706;52.100;5.056;2023-03-08T05:50:08;51.07;;;22.37;;
49812;SDS011;35706;52.100;5.056;2023-03-08T05:51:13;51.40;;;22.37;;
49812;SDS011;35706;52.100;5.056;2023-03-08T05:52:14;47.90;;;22.23;;
49812;SDS011;35706;52.100;5.056;2023-03-08T05:53:15;44.93;;;21.57;;
49812;SDS011;35706;52.100;5.056;2023-03-08T05:54:15;44.10;;;21.03;;
49812;SDS011;35706;52.100;5.056;2023-03-08T05:55:15;47.20;;;21.40;;
49812;SDS011;35706;52.100;5.056;2023-03-08T05:56:17;44.80;;;20.37;;
49812;SDS011;35706;52.100;5.056;2023-03-08T05:57:19;42.43;;;19.70;;
49812;SDS011;35706;52.100;5.056;2023-03-08T05:58:19;50.00;;;21.10;;
49812;SDS011;35706;52.100;5.056;2023-03-08T05:59:19;44.90;;;20.80;;
49812;SDS011;35706;52.100;5.056;2023-03-08T06:00:20;47.80;;;20.53;;
49812;SDS011;35706;52.100;5.056;2023-03-08T06:01:22;44.90;;;20.43;;
49812;SDS011;35706;52.100;5.056;2023-03-08T06:02:24;46.30;;;21.20;;
49812;SDS011;35706;52.100;5.056;2023-03-08T06:03:24;47.03;;;20.47;;
49812;SDS011;35706;52.100;5.056;2023-03-08T06:04:24;50.50;;;21.67;;
49812;SDS011;35706;52.100;5.056;2023-03-08T06:05:25;46.20;;;20.60;;
49812;SDS011;35706;52.100;5.056;2023-03-08T06:06:25;46.77;;;19.90;;
49812;SDS011;35706;52.100;5.056;2023-03-08T06:07:26;44.63;;;19.73;;
49812;SDS011;35706;52.100;5.056;2023-03-08T06:08:26;46.57;;;20.13;;
49812;SDS011;35706;52.100;5.056;2023-03-08T06:09:27;46.20;;;21.27;;
49812;SDS011;35706;52.100;5.056;2023-03-08T06:10:27;51.77;;;21.53;;
49812;SDS011;35706;52.100;5.056;2023-03-08T06:11:27;46.83;;;19.90;;
49812;SDS011;35706;52.100;5.056;2023-03-08T06:12:28;53.53;;;21.43;;
49812;SDS011;35706;52.100;5.056;2023-03-08T06:13:28;45.60;;;19.87;;
49812;SDS011;35706;52.100;5.056;2023-03-08T06:14:29;44.60;;;20.53;;
49812;SDS011;35706;52.100;5.056;2023-03-08T06:15:29;50.80;;;21.43;;
49812;SDS011;35706;52.100;5.056;2023-03-08T06:16:29;43.23;;;19.80;;
49812;SDS011;35706;52.100;5.056;2023-03-08T06:17:30;47.90;;;20.67;;
49812;SDS011;35706;52.100;5.056;2023-03-08T06:18:30;46.63;;;21.80;;
49812;SDS011;35706;52.100;5.056;2023-03-08T06:19:31;49.97;;;21.77;;
49812;SDS011;35706;52.100;5.056;2023-03-08T06:20:31;52.40;;;22.43;;
49812;SDS011;35706;52.100;5.056;2023-03-08T06:21:32;51.47;;;22.83;;
49812;SDS011;35706;52.100;5.056;2023-03-08T06:22:32;48.63;;;20.43;;
49812;SDS011;35706;52.100;5.056;2023-03-08T06:23:34;52.00;;;22.20;;
49812;SDS011;35706;52.100;5.056;2023-03-08T06:24:34;52.87;;;21.20;;
49812;SDS011;35706;52.100;5.056;2023-03-08T06:25:35;49.27;;;21.93;;
49812;SDS011;35706;52.100;5.056;2023-03-08T06:26:35;54.67;;;22.13;;
49812;SDS011;35706;52.100;5.056;2023-03-08T06:27:35;52.20;;;22.13;;
49812;SDS011;35706;52.100;5.056;2023-03-08T06:28:36;49.60;;;22.73;;
49812;SDS011;35706;52.100;5.056;2023-03-08T06:29:39;49.60;;;21.83;;
49812;SDS011;35706;52.100;5.056;2023-03-08T06:30:39;52.03;;;22.17;;
49812;SDS011;35706;52.100;5.056;2023-03-08T06:31:39;53.90;;;24.43;;
49812;SDS011;35706;52.100;5.056;2023-03-08T06:32:40;52.80;;;22.70;;
49812;SDS011;35706;52.100;5.056;2023-03-08T06:33:41;49.27;;;22.33;;
49812;SDS011;35706;52.100;5.056;2023-03-08T06:34:42;56.40;;;23.23;;
49812;SDS011;35706;52.100;5.056;2023-03-08T06:35:42;52.90;;;24.33;;
49812;SDS011;35706;52.100;5.056;2023-03-08T06:36:43;53.73;;;23.80;;
49812;SDS011;35706;52.100;5.056;2023-03-08T06:37:43;51.23;;;24.03;;
49812;SDS011;35706;52.100;5.056;2023-03-08T06:38:43;54.97;;;23.17;;
49812;SDS011;35706;52.100;5.056;2023-03-08T06:39:44;54.27;;;24.13;;
49812;SDS011;35706;52.100;5.056;2023-03-08T06:40:44;55.30;;;23.47;;
49812;SDS011;35706;52.100;5.056;2023-03-08T06:41:45;51.43;;;23.63;;
49812;SDS011;35706;52.100;5.056;2023-03-08T06:42:45;49.40;;;23.77;;
49812;SDS011;35706;52.100;5.056;2023-03-08T06:43:45;54.43;;;23.73;;
49812;SDS011;35706;52.100;5.056;2023-03-08T06:44:45;56.70;;;24.77;;
49812;SDS011;35706;52.100;5.056;2023-03-08T06:45:46;60.43;;;24.53;;
49812;SDS011;35706;52.100;5.056;2023-03-08T06:46:46;59.17;;;25.40;;
49812;SDS011;35706;52.100;5.056;2023-03-08T06:47:46;50.10;;;23.77;;
49812;SDS011;35706;52.100;5.056;2023-03-08T06:48:47;54.80;;;24.53;;
49812;SDS011;35706;52.100;5.056;2023-03-08T06:49:48;55.40;;;24.37;;
49812;SDS011;35706;52.100;5.056;2023-03-08T06:50:48;53.83;;;24.87;;
49812;SDS011;35706;52.100;5.056;2023-03-08T06:51:49;55.63;;;24.77;;